Terminal Aerodrome Forecast
Issued by NWS

Home | Current Version | Previous Version | Text Only | Print | Product List | Glossary On
Versions: 1 2 3 4 5 6 7 8 9 10 11 12 13 14
000
FTUS43 KGRB 212100 AAA
TAFMTW
TAF AMD
KMTW 212138Z 2122/2218 18014G20KT P6SM SCT009 OVC040
     FM212300 17011KT P6SM OVC015
      TEMPO 2123/2203 4SM -RASN BR
     FM220300 16011KT 6SM BR OVC012
     FM220800 15009KT 5SM BR OVC012
     FM221500 13008KT 5SM BR SCT012 OVC025=

USA.gov is the U.S. government's official web portal to all federal, state and local government web resources and services.